Time;durP1;ratioP1;P1;durP2;ratioP2;P2;SDS_P1;SDS_P2;PMS_P1;PMS_P2;Temp;Humidity;BMP_temperature;BMP_pressure;BME280_temperature;BME280_humidity;BME280_pressure;Samples;Min_cycle;Max_cycle;Signal;HPM_P1;HPM_P2
2022/01/01 00:01:35;;;;;;;2.60;2.40;;;8.10;99.90;;;;;;5014374;28;20320;-65
2022/01/01 00:04:02;;;;;;;2.13;2.03;;;8.10;99.90;;;;;;5013721;28;20228;-64
2022/01/01 00:06:29;;;;;;;2.33;2.23;;;8.00;99.90;;;;;;5013263;28;20288;-65
2022/01/01 00:08:56;;;;;;;2.80;2.60;;;8.00;99.90;;;;;;5013639;28;20305;-65
2022/01/01 00:11:23;;;;;;;2.80;2.60;;;8.00;99.90;;;;;;5013129;28;20232;-65
2022/01/01 00:13:50;;;;;;;2.90;2.80;;;7.90;99.90;;;;;;5013012;28;20590;-66
2022/01/01 00:16:18;;;;;;;2.30;2.20;;;7.90;99.90;;;;;;5013435;28;20232;-66
2022/01/01 00:18:45;;;;;;;2.40;2.30;;;7.90;99.90;;;;;;5013135;28;20241;-66
2022/01/01 00:21:12;;;;;;;2.53;2.37;;;7.90;99.90;;;;;;5012910;28;20301;-66
2022/01/01 00:23:39;;;;;;;2.37;2.10;;;7.80;99.90;;;;;;5012946;28;20226;-65
2022/01/01 00:26:05;;;;;;;2.10;2.00;;;7.80;99.90;;;;;;5012917;28;20621;-66
2022/01/01 00:28:32;;;;;;;1.87;1.77;;;7.80;99.90;;;;;;5012962;28;20205;-66
2022/01/01 00:30:59;;;;;;;1.87;1.77;;;7.80;99.90;;;;;;5012810;28;20412;-65
2022/01/01 00:33:29;;;;;;;1.47;1.47;;;7.90;99.90;;;;;;5016526;28;20264;-66
2022/01/01 00:35:57;;;;;;;1.90;1.80;;;8.00;99.90;;;;;;5018948;28;20213;-65
2022/01/01 00:38:24;;;;;;;2.07;1.87;;;8.00;99.90;;;;;;5032708;28;20219;-65
2022/01/01 00:40:51;;;;;;;1.73;1.63;;;7.90;99.90;;;;;;5014320;28;20233;-65
2022/01/01 00:43:18;;;;;;;1.80;1.70;;;7.90;99.90;;;;;;5012774;28;20316;-65
2022/01/01 00:45:45;;;;;;;1.40;1.40;;;7.90;99.90;;;;;;5015203;28;20233;-66
2022/01/01 00:48:11;;;;;;;1.70;1.60;;;7.90;99.90;;;;;;5012812;28;20251;-65
2022/01/01 00:50:40;;;;;;;1.70;1.60;;;7.80;99.90;;;;;;5014611;28;20236;-66
2022/01/01 00:53:07;;;;;;;1.50;1.50;;;7.80;99.90;;;;;;5017227;28;20225;-65
2022/01/01 00:55:34;;;;;;;1.57;1.57;;;7.80;99.90;;;;;;5017507;28;20237;-64
2022/01/01 00:58:01;;;;;;;1.80;1.70;;;7.80;99.90;;;;;;5022153;28;20264;-65
2022/01/01 01:00:28;;;;;;;1.47;1.47;;;7.80;99.90;;;;;;5013159;28;20890;-66
2022/01/01 01:02:55;;;;;;;1.60;1.50;;;7.70;99.90;;;;;;5013109;28;20699;-65
2022/01/01 01:05:22;;;;;;;1.57;1.57;;;7.70;99.90;;;;;;5015533;28;20296;-65
2022/01/01 01:07:50;;;;;;;1.53;1.53;;;7.70;99.90;;;;;;5022432;28;20232;-66
2022/01/01 01:10:17;;;;;;;2.10;2.00;;;7.60;99.90;;;;;;5025699;28;20229;-66
2022/01/01 01:12:47;;;;;;;1.93;1.83;;;7.60;99.90;;;;;;5032047;28;20217;-66
2022/01/01 01:15:17;;;;;;;1.60;1.57;;;7.60;99.90;;;;;;5031882;28;20231;-65
2022/01/01 01:17:46;;;;;;;1.40;1.40;;;7.50;99.90;;;;;;5034632;28;20208;-66
2022/01/01 01:20:13;;;;;;;1.87;1.77;;;7.50;99.90;;;;;;5031250;28;20654;-68
2022/01/01 01:22:40;;;;;;;1.40;1.40;;;7.60;99.90;;;;;;5019035;28;20243;-65
2022/01/01 01:25:11;;;;;;;1.60;1.60;;;7.60;99.90;;;;;;5016120;28;20641;-64
2022/01/01 01:27:38;;;;;;;1.57;1.50;;;7.50;99.90;;;;;;5015820;28;20898;-66
2022/01/01 01:30:08;;;;;;;1.60;1.50;;;7.50;99.90;;;;;;5015644;28;20255;-65
2022/01/01 01:32:35;;;;;;;1.57;1.47;;;7.50;99.90;;;;;;5014872;28;20198;-65
2022/01/01 01:35:02;;;;;;;1.40;1.40;;;7.50;99.90;;;;;;5015304;28;20203;-65
2022/01/01 01:37:29;;;;;;;1.50;1.50;;;7.50;99.90;;;;;;5015113;28;20228;-65
2022/01/01 01:39:56;;;;;;;1.80;1.70;;;7.50;99.90;;;;;;5015075;28;20205;-65
2022/01/01 01:42:27;;;;;;;1.30;1.30;;;7.40;99.90;;;;;;5015055;28;20235;-66
2022/01/01 01:44:55;;;;;;;1.43;1.40;;;7.40;99.90;;;;;;5015128;28;20379;-65
2022/01/01 01:47:29;;;;;;;1.40;1.30;;;7.40;99.90;;;;;;5015210;28;20201;-66
2022/01/01 01:49:57;;;;;;;1.37;1.37;;;7.40;99.90;;;;;;5012700;28;20200;-65
2022/01/01 01:52:25;;;;;;;1.30;1.30;;;7.40;99.90;;;;;;4995696;28;20243;-66
2022/01/01 01:54:52;;;;;;;1.30;1.30;;;7.40;99.90;;;;;;4995756;28;20202;-65
2022/01/01 01:57:21;;;;;;;1.67;1.60;;;7.40;99.90;;;;;;4995533;28;20259;-64
2022/01/01 01:59:51;;;;;;;1.40;1.40;;;7.40;99.90;;;;;;4995372;28;20289;-65
2022/01/01 02:02:18;;;;;;;1.40;1.40;;;7.30;99.90;;;;;;4995302;28;20210;-66
2022/01/01 02:04:45;;;;;;;1.47;1.43;;;7.20;99.90;;;;;;4995447;28;20210;-66
2022/01/01 02:07:13;;;;;;;1.60;1.50;;;7.20;99.90;;;;;;4995251;28;20321;-65
2022/01/01 02:09:40;;;;;;;1.30;1.30;;;7.20;99.90;;;;;;4995208;28;20237;-66
2022/01/01 02:12:08;;;;;;;1.40;1.40;;;7.20;99.90;;;;;;4994872;28;20760;-65
2022/01/01 02:15:04;;;;;;;1.30;1.30;;;7.10;99.90;;;;;;4995163;28;20584;-64
2022/01/01 02:17:32;;;;;;;1.40;1.40;;;7.10;99.90;;;;;;4995974;28;20644;-66
2022/01/01 02:20:09;;;;;;;1.40;1.30;;;7.20;99.90;;;;;;5015000;28;20240;-65
2022/01/01 02:22:40;;;;;;;1.30;1.30;;;7.20;99.90;;;;;;5014250;28;20439;-65
2022/01/01 02:25:07;;;;;;;1.27;1.20;;;7.10;99.90;;;;;;5013873;28;20205;-65
2022/01/01 02:27:36;;;;;;;1.20;1.20;;;7.30;99.90;;;;;;5013994;28;20213;-65
2022/01/01 02:30:04;;;;;;;1.50;1.40;;;7.10;99.90;;;;;;5014037;28;20710;-66
2022/01/01 02:32:31;;;;;;;1.10;1.10;;;7.10;99.90;;;;;;5020677;28;20244;-65
2022/01/01 02:34:58;;;;;;;1.00;1.00;;;7.10;99.90;;;;;;5014615;28;20248;-64
2022/01/01 02:37:26;;;;;;;1.30;1.30;;;7.20;99.90;;;;;;5013657;28;20265;-66
2022/01/01 02:39:53;;;;;;;1.27;1.27;;;7.20;99.90;;;;;;5013832;28;20664;-65
2022/01/01 02:42:22;;;;;;;1.00;1.00;;;7.20;99.90;;;;;;5013374;28;20392;-66
2022/01/01 02:44:50;;;;;;;1.23;1.23;;;7.20;99.90;;;;;;5013936;28;20202;-66
2022/01/01 02:47:17;;;;;;;1.30;1.20;;;7.30;99.90;;;;;;5013583;28;20581;-64
2022/01/01 02:49:44;;;;;;;1.07;1.07;;;7.20;99.90;;;;;;5013015;28;20236;-65
2022/01/01 02:52:11;;;;;;;1.10;1.10;;;7.30;99.90;;;;;;5013414;28;20305;-65
2022/01/01 02:54:39;;;;;;;0.93;0.93;;;7.40;99.90;;;;;;5013709;28;20221;-65
2022/01/01 02:57:06;;;;;;;1.20;1.20;;;7.40;99.90;;;;;;5013266;28;20576;-66
2022/01/01 02:59:33;;;;;;;1.00;1.00;;;7.50;99.90;;;;;;5013190;28;20209;-65
2022/01/01 03:02:00;;;;;;;1.37;1.27;;;7.60;99.90;;;;;;5013611;28;20645;-64
2022/01/01 03:04:27;;;;;;;1.10;1.10;;;7.50;99.90;;;;;;5013331;28;20316;-64
2022/01/01 03:06:55;;;;;;;1.00;1.00;;;7.50;99.90;;;;;;5012879;28;20209;-66
2022/01/01 03:09:23;;;;;;;1.10;1.10;;;7.50;99.90;;;;;;5013292;28;20212;-66
2022/01/01 03:11:52;;;;;;;1.10;1.10;;;7.50;99.90;;;;;;5013349;28;20213;-65
2022/01/01 03:14:18;;;;;;;0.80;0.80;;;7.40;99.90;;;;;;5012848;28;20252;-65
2022/01/01 03:16:45;;;;;;;0.80;0.80;;;7.40;99.90;;;;;;5013143;28;20252;-65
2022/01/01 03:19:12;;;;;;;0.90;0.90;;;7.50;99.90;;;;;;5013537;28;20205;-65
2022/01/01 03:21:39;;;;;;;0.90;0.90;;;7.60;99.90;;;;;;5013840;28;20324;-65
2022/01/01 03:24:08;;;;;;;0.90;0.90;;;7.60;99.90;;;;;;5020294;28;20316;-65
2022/01/01 03:26:35;;;;;;;1.17;1.07;;;7.50;99.90;;;;;;5015066;28;20257;-66
2022/01/01 03:29:04;;;;;;;0.80;0.80;;;7.50;99.90;;;;;;5012299;28;20213;-67
2022/01/01 03:31:31;;;;;;;0.83;0.83;;;7.50;99.90;;;;;;5022842;23;20245;-63
2022/01/01 03:33:58;;;;;;;0.80;0.80;;;7.60;99.90;;;;;;5011096;28;20742;-63
2022/01/01 03:36:25;;;;;;;0.93;0.93;;;7.50;99.90;;;;;;5013810;28;20201;-62
2022/01/01 03:38:52;;;;;;;1.00;1.00;;;7.50;99.90;;;;;;5014459;28;20233;-63
2022/01/01 03:41:19;;;;;;;0.90;0.90;;;7.50;99.90;;;;;;5015978;28;20209;-64
2022/01/01 03:43:47;;;;;;;0.90;0.90;;;7.40;99.90;;;;;;5024909;28;20256;-64
2022/01/01 03:46:15;;;;;;;0.90;0.90;;;7.30;99.90;;;;;;5018830;28;20237;-62
2022/01/01 03:48:42;;;;;;;1.10;1.10;;;7.30;99.90;;;;;;5016413;28;20212;-63
2022/01/01 03:51:09;;;;;;;1.20;1.20;;;7.30;99.90;;;;;;5014439;28;20263;-64
2022/01/01 03:53:36;;;;;;;1.00;1.00;;;7.30;99.90;;;;;;5013774;28;20767;-62
2022/01/01 03:56:03;;;;;;;0.90;0.90;;;7.30;99.90;;;;;;5012767;28;20216;-64
2022/01/01 03:58:30;;;;;;;0.87;0.87;;;7.30;99.90;;;;;;5019699;28;20293;-63
2022/01/01 04:00:57;;;;;;;1.03;1.03;;;7.30;99.90;;;;;;5020277;28;20212;-62
2022/01/01 04:03:25;;;;;;;1.20;1.10;;;7.30;99.90;;;;;;5019122;28;20265;-63
2022/01/01 04:05:52;;;;;;;0.90;0.90;;;7.30;99.90;;;;;;5021623;28;20256;-63
2022/01/01 04:08:19;;;;;;;1.10;1.10;;;7.40;99.90;;;;;;5013694;28;20240;-63
2022/01/01 04:10:46;;;;;;;1.07;1.07;;;7.40;99.90;;;;;;5013809;28;20288;-63
2022/01/01 04:13:13;;;;;;;0.80;0.80;;;7.40;99.90;;;;;;5013469;28;20265;-65
2022/01/01 04:15:42;;;;;;;0.90;0.90;;;7.30;99.90;;;;;;5013565;28;20293;-62
2022/01/01 04:18:12;;;;;;;0.90;0.90;;;7.30;99.90;;;;;;5012033;28;20638;-64
2022/01/01 04:20:41;;;;;;;0.80;0.80;;;7.30;99.90;;;;;;5012197;28;20304;-63
2022/01/01 04:23:10;;;;;;;0.90;0.90;;;7.30;99.90;;;;;;5012042;28;20679;-65
2022/01/01 04:25:37;;;;;;;0.83;0.83;;;7.30;99.90;;;;;;5012436;28;20215;-62
2022/01/01 04:28:05;;;;;;;0.80;0.80;;;7.20;99.90;;;;;;5012147;28;20216;-61
2022/01/01 04:30:32;;;;;;;0.80;0.80;;;7.20;99.90;;;;;;5013185;28;20259;-61
2022/01/01 04:32:59;;;;;;;0.90;0.90;;;7.20;99.90;;;;;;5013469;28;20316;-63
2022/01/01 04:35:26;;;;;;;0.90;0.90;;;7.10;99.90;;;;;;5013284;28;20223;-64
2022/01/01 04:37:55;;;;;;;1.00;1.00;;;7.10;99.90;;;;;;5013101;28;20240;-64
2022/01/01 04:40:21;;;;;;;0.70;0.70;;;7.00;99.90;;;;;;5012875;28;20232;-62
2022/01/01 04:42:48;;;;;;;0.70;0.70;;;7.00;99.90;;;;;;5012552;28;20312;-61
2022/01/01 04:45:15;;;;;;;1.00;1.00;;;7.00;99.90;;;;;;5012253;28;20687;-62
2022/01/01 04:47:42;;;;;;;0.70;0.70;;;6.90;99.90;;;;;;5012365;28;20291;-64
2022/01/01 04:50:10;;;;;;;0.80;0.80;;;7.00;99.90;;;;;;5012551;28;20297;-61
2022/01/01 04:52:37;;;;;;;0.90;0.90;;;7.00;99.90;;;;;;5013158;28;20715;-62
2022/01/01 04:55:06;;;;;;;0.80;0.80;;;7.00;99.90;;;;;;5013663;28;20690;-61
2022/01/01 04:57:33;;;;;;;0.90;0.90;;;7.00;99.90;;;;;;5013056;28;20240;-61
2022/01/01 05:00:00;;;;;;;0.80;0.80;;;6.90;99.90;;;;;;5012915;28;20244;-63
2022/01/01 05:02:27;;;;;;;1.00;1.00;;;7.00;99.90;;;;;;5012507;28;20257;-62
2022/01/01 05:04:54;;;;;;;0.90;0.90;;;7.00;99.90;;;;;;5013096;28;20579;-63
2022/01/01 05:07:21;;;;;;;0.80;0.80;;;7.00;99.90;;;;;;5013133;28;20236;-62
2022/01/01 05:09:48;;;;;;;1.00;1.00;;;7.00;99.90;;;;;;5012640;28;20233;-62
2022/01/01 05:12:16;;;;;;;0.70;0.70;;;7.00;99.90;;;;;;5011700;28;20231;-64
2022/01/01 05:14:44;;;;;;;0.90;0.90;;;7.00;99.90;;;;;;5012092;28;20671;-60
2022/01/01 05:17:12;;;;;;;0.73;0.73;;;7.00;99.90;;;;;;5012273;28;20209;-63
2022/01/01 05:19:39;;;;;;;0.80;0.80;;;6.90;99.90;;;;;;5012943;28;20214;-61
2022/01/01 05:22:06;;;;;;;0.90;0.90;;;7.00;99.90;;;;;;5011939;28;20308;-62
2022/01/01 05:24:32;;;;;;;0.80;0.80;;;7.00;99.90;;;;;;5012532;28;20316;-62
2022/01/01 05:26:59;;;;;;;0.80;0.80;;;7.00;99.90;;;;;;5012190;28;20255;-63
2022/01/01 05:29:27;;;;;;;0.80;0.80;;;7.10;99.90;;;;;;5012553;28;20245;-61
2022/01/01 05:31:55;;;;;;;0.83;0.83;;;7.10;99.90;;;;;;5012061;28;20365;-63
2022/01/01 05:34:21;;;;;;;0.73;0.73;;;7.10;99.90;;;;;;5011698;28;20308;-64
2022/01/01 05:36:48;;;;;;;0.77;0.77;;;7.10;99.90;;;;;;5011584;28;20237;-62
2022/01/01 05:39:15;;;;;;;0.90;0.90;;;7.10;99.90;;;;;;5013199;28;20201;-64
2022/01/01 05:41:42;;;;;;;0.73;0.73;;;7.10;99.90;;;;;;5017607;28;20209;-63
2022/01/01 05:44:09;;;;;;;0.90;0.90;;;7.10;99.90;;;;;;4995635;28;20587;-63
2022/01/01 05:46:37;;;;;;;0.90;0.90;;;7.20;99.90;;;;;;4994360;28;20207;-64
2022/01/01 05:49:05;;;;;;;0.77;0.77;;;7.30;99.90;;;;;;4996571;28;20208;-64
2022/01/01 05:51:32;;;;;;;1.00;1.00;;;7.20;99.90;;;;;;4998646;28;20209;-64
2022/01/01 05:53:58;;;;;;;0.90;0.90;;;7.20;99.90;;;;;;5000342;28;20300;-62
2022/01/01 05:56:25;;;;;;;0.90;0.90;;;7.20;99.90;;;;;;4997051;28;20206;-64
2022/01/01 05:58:52;;;;;;;0.90;0.90;;;7.20;99.90;;;;;;4998504;28;20850;-64
2022/01/01 06:01:19;;;;;;;0.90;0.90;;;7.20;99.90;;;;;;5002218;28;20694;-64
2022/01/01 06:03:47;;;;;;;0.80;0.80;;;7.20;99.90;;;;;;4998158;28;20670;-64
2022/01/01 06:06:14;;;;;;;1.00;1.00;;;7.20;99.90;;;;;;4997621;28;20285;-63
2022/01/01 06:08:41;;;;;;;0.80;0.80;;;7.20;99.90;;;;;;5001392;28;20298;-63
2022/01/01 06:11:08;;;;;;;0.60;0.60;;;7.20;99.90;;;;;;5014860;28;20197;-62
2022/01/01 06:13:35;;;;;;;0.90;0.90;;;7.20;99.90;;;;;;5014856;28;20249;-62
2022/01/01 06:16:02;;;;;;;0.70;0.70;;;7.20;99.90;;;;;;5014178;28;20308;-62
2022/01/01 06:18:29;;;;;;;0.80;0.80;;;7.30;99.90;;;;;;5014773;28;20308;-62
2022/01/01 06:20:57;;;;;;;0.80;0.80;;;7.30;99.90;;;;;;5014706;28;20292;-63
2022/01/01 06:23:25;;;;;;;0.83;0.83;;;7.40;99.90;;;;;;5014491;28;20225;-62
2022/01/01 06:25:51;;;;;;;0.70;0.70;;;7.40;99.90;;;;;;5014242;28;20243;-63
2022/01/01 06:28:18;;;;;;;1.07;1.03;;;7.40;99.90;;;;;;5016017;28;20292;-61
2022/01/01 06:30:45;;;;;;;0.80;0.80;;;7.50;99.90;;;;;;5019786;28;20887;-61
2022/01/01 06:33:14;;;;;;;0.87;0.87;;;7.60;99.90;;;;;;5018059;28;20767;-61
2022/01/01 06:35:41;;;;;;;0.87;0.87;;;7.60;99.90;;;;;;5019327;28;20212;-62
2022/01/01 06:38:10;;;;;;;0.80;0.80;;;7.60;99.90;;;;;;5018828;28;20244;-61
2022/01/01 06:40:39;;;;;;;0.80;0.80;;;7.50;99.90;;;;;;5015736;28;20312;-63
2022/01/01 06:43:06;;;;;;;0.90;0.90;;;7.50;99.90;;;;;;5014337;28;20236;-63
2022/01/01 06:45:33;;;;;;;0.80;0.80;;;7.50;99.90;;;;;;5014181;28;20212;-62
2022/01/01 06:48:00;;;;;;;0.80;0.80;;;7.60;99.90;;;;;;5014309;28;20316;-63
2022/01/01 06:50:27;;;;;;;0.80;0.80;;;7.60;99.90;;;;;;5014262;28;20205;-62
2022/01/01 06:52:54;;;;;;;0.90;0.90;;;7.60;99.90;;;;;;5014194;28;20771;-62
2022/01/01 06:55:22;;;;;;;0.80;0.80;;;7.60;99.90;;;;;;5013890;28;20683;-63
2022/01/01 06:57:50;;;;;;;0.73;0.73;;;7.70;99.90;;;;;;5013370;28;20746;-63
2022/01/01 07:00:17;;;;;;;0.70;0.70;;;7.70;99.90;;;;;;5012704;28;20313;-61
2022/01/01 07:02:46;;;;;;;0.90;0.90;;;7.80;99.90;;;;;;5013622;28;20565;-61
2022/01/01 07:05:13;;;;;;;0.70;0.70;;;7.90;99.90;;;;;;5013279;28;20764;-62
2022/01/01 07:07:40;;;;;;;0.80;0.80;;;7.90;99.90;;;;;;5013102;28;20205;-64
2022/01/01 07:10:08;;;;;;;0.80;0.80;;;7.90;99.90;;;;;;5013761;28;20211;-62
2022/01/01 07:12:37;;;;;;;0.70;0.70;;;7.90;99.90;;;;;;5013508;28;20661;-62
2022/01/01 07:15:05;;;;;;;0.70;0.70;;;7.90;99.90;;;;;;5013346;28;20237;-63
2022/01/01 07:17:32;;;;;;;0.73;0.73;;;8.00;99.90;;;;;;5012851;28;20292;-63
2022/01/01 07:19:59;;;;;;;0.70;0.70;;;8.00;99.90;;;;;;5013746;28;20635;-62
2022/01/01 07:22:26;;;;;;;0.77;0.77;;;8.10;99.90;;;;;;5014108;28;20315;-63
2022/01/01 07:24:53;;;;;;;0.60;0.60;;;8.10;99.90;;;;;;5013882;28;20336;-62
2022/01/01 07:27:20;;;;;;;0.80;0.80;;;8.10;99.90;;;;;;5013678;28;20316;-62
2022/01/01 07:29:48;;;;;;;0.90;0.90;;;8.20;99.90;;;;;;5013646;28;20209;-63
2022/01/01 07:32:15;;;;;;;0.67;0.67;;;8.20;99.90;;;;;;5013161;28;20315;-62
2022/01/01 07:34:42;;;;;;;0.60;0.60;;;8.20;99.90;;;;;;5013653;28;20236;-64
2022/01/01 07:37:09;;;;;;;0.80;0.80;;;8.20;99.90;;;;;;5023519;28;20211;-63
2022/01/01 07:39:36;;;;;;;0.90;0.90;;;8.20;99.90;;;;;;5019291;28;20232;-63
2022/01/01 07:42:03;;;;;;;0.80;0.80;;;8.20;99.90;;;;;;5012780;28;20669;-63
2022/01/01 07:44:29;;;;;;;0.70;0.70;;;8.20;99.90;;;;;;5012927;28;20225;-63
2022/01/01 07:46:58;;;;;;;0.90;0.90;;;8.10;99.90;;;;;;5012657;28;20236;-64
2022/01/01 07:49:25;;;;;;;1.03;1.03;;;8.20;99.90;;;;;;5012697;28;20223;-63
2022/01/01 07:51:51;;;;;;;0.80;0.80;;;8.20;99.90;;;;;;5012833;28;20257;-63
2022/01/01 07:54:18;;;;;;;0.90;0.90;;;8.10;99.90;;;;;;5010134;28;20710;-64
2022/01/01 07:56:45;;;;;;;0.77;0.77;;;8.10;99.90;;;;;;5010774;28;20228;-62
2022/01/01 07:59:12;;;;;;;0.80;0.80;;;8.10;99.90;;;;;;5011551;28;20304;-62
2022/01/01 08:01:40;;;;;;;0.60;0.60;;;8.10;99.90;;;;;;5010943;28;20263;-63
2022/01/01 08:04:08;;;;;;;0.80;0.80;;;8.10;99.90;;;;;;5009971;28;20759;-62
2022/01/01 08:06:35;;;;;;;0.90;0.90;;;8.10;99.90;;;;;;5010867;28;20297;-64
2022/01/01 08:09:02;;;;;;;0.93;0.93;;;8.10;99.90;;;;;;5011143;28;20212;-65
2022/01/01 08:11:29;;;;;;;1.00;1.00;;;8.10;99.90;;;;;;5011663;28;20304;-65
2022/01/01 08:13:56;;;;;;;0.83;0.83;;;8.10;99.90;;;;;;5011586;28;20263;-61
2022/01/01 08:16:23;;;;;;;0.90;0.90;;;8.20;99.90;;;;;;5011505;28;20296;-63
2022/01/01 08:18:50;;;;;;;0.83;0.83;;;8.20;99.90;;;;;;5012185;28;20626;-62
2022/01/01 08:21:18;;;;;;;0.90;0.90;;;8.20;99.90;;;;;;5012240;28;20209;-62
2022/01/01 08:23:45;;;;;;;0.90;0.90;;;8.30;99.90;;;;;;5012427;28;20749;-63
2022/01/01 08:26:12;;;;;;;0.90;0.90;;;8.40;99.90;;;;;;5011869;28;20296;-63
2022/01/01 08:28:39;;;;;;;1.00;1.00;;;8.40;99.90;;;;;;5012213;28;20233;-61
2022/01/01 08:31:06;;;;;;;1.00;1.00;;;8.50;99.90;;;;;;5011880;28;20215;-63
2022/01/01 08:33:33;;;;;;;0.90;0.90;;;8.40;99.90;;;;;;5012215;28;20286;-64
2022/01/01 08:36:03;;;;;;;0.90;0.90;;;8.60;99.90;;;;;;5013192;28;20300;-63
2022/01/01 08:38:31;;;;;;;0.80;0.80;;;8.70;99.90;;;;;;5013383;28;20672;-63
2022/01/01 08:40:59;;;;;;;0.80;0.80;;;8.80;99.90;;;;;;5013687;28;20212;-62
2022/01/01 08:43:26;;;;;;;0.97;0.97;;;8.90;99.90;;;;;;5012596;28;20235;-62
2022/01/01 08:45:54;;;;;;;1.00;1.00;;;8.90;99.90;;;;;;5012053;28;20315;-62
2022/01/01 08:48:21;;;;;;;1.10;1.10;;;9.00;99.90;;;;;;5008711;28;20210;-64
2022/01/01 08:50:47;;;;;;;0.90;0.90;;;9.10;99.90;;;;;;5009883;28;20201;-63
2022/01/01 08:53:15;;;;;;;0.90;0.90;;;9.10;99.90;;;;;;5012071;28;20229;-64
2022/01/01 08:55:43;;;;;;;0.90;0.90;;;9.20;99.90;;;;;;5011956;28;20288;-62
2022/01/01 08:58:10;;;;;;;1.10;1.10;;;9.20;99.90;;;;;;5011795;28;20201;-64
2022/01/01 09:00:37;;;;;;;0.90;0.90;;;9.30;99.90;;;;;;5011580;28;20587;-64
2022/01/01 09:03:04;;;;;;;1.00;1.00;;;9.30;99.90;;;;;;5012645;28;20734;-63
2022/01/01 09:05:31;;;;;;;1.10;1.10;;;9.40;99.90;;;;;;5012050;28;20296;-63
2022/01/01 09:07:57;;;;;;;1.00;1.00;;;9.50;99.90;;;;;;5011347;28;20890;-62
2022/01/01 09:10:24;;;;;;;1.00;1.00;;;9.60;99.90;;;;;;5007957;28;20655;-63
2022/01/01 09:12:53;;;;;;;0.87;0.87;;;9.60;99.90;;;;;;5005175;28;20225;-64
2022/01/01 09:15:20;;;;;;;1.10;1.10;;;9.60;99.90;;;;;;5014655;28;20260;-63
2022/01/01 09:17:46;;;;;;;1.00;1.00;;;9.70;99.90;;;;;;5011757;28;20327;-63
2022/01/01 09:20:13;;;;;;;0.90;0.90;;;9.80;99.90;;;;;;5001002;28;20240;-63
2022/01/01 09:22:40;;;;;;;1.17;1.00;;;9.90;99.90;;;;;;4999142;28;20304;-63
2022/01/01 09:25:07;;;;;;;1.00;1.00;;;10.00;99.90;;;;;;5009351;28;20328;-64
2022/01/01 09:27:34;;;;;;;0.97;0.97;;;10.20;99.90;;;;;;5011810;28;20237;-63
2022/01/01 09:30:03;;;;;;;1.20;1.20;;;10.50;99.90;;;;;;5014870;28;20229;-62
2022/01/01 09:32:30;;;;;;;1.00;1.00;;;10.40;99.90;;;;;;5020666;28;20325;-63
2022/01/01 09:34:57;;;;;;;1.00;1.00;;;10.60;99.90;;;;;;5026242;28;20211;-63
2022/01/01 09:37:24;;;;;;;1.30;1.20;;;10.70;99.90;;;;;;5021903;28;20240;-62
2022/01/01 09:39:51;;;;;;;1.20;1.20;;;10.80;99.90;;;;;;5009216;28;20289;-63
2022/01/01 09:42:21;;;;;;;1.40;1.40;;;10.90;99.90;;;;;;5003331;28;20252;-63
2022/01/01 09:44:48;;;;;;;1.40;1.30;;;11.00;99.90;;;;;;4997374;28;20222;-64
2022/01/01 09:47:17;;;;;;;1.10;1.10;;;11.10;99.90;;;;;;4996100;28;20289;-63
2022/01/01 09:49:44;;;;;;;1.10;1.10;;;11.30;99.90;;;;;;4998389;28;20312;-63
2022/01/01 09:52:12;;;;;;;0.90;0.90;;;11.40;99.90;;;;;;4998235;28;20222;-63
2022/01/01 09:54:39;;;;;;;1.00;1.00;;;11.50;99.90;;;;;;4997824;28;20198;-62
2022/01/01 09:57:06;;;;;;;1.00;1.00;;;11.70;99.90;;;;;;4998824;28;20285;-63
2022/01/01 09:59:33;;;;;;;1.00;1.00;;;11.70;99.90;;;;;;5004054;28;20320;-63
2022/01/01 10:02:00;;;;;;;0.80;0.80;;;11.80;99.90;;;;;;5015285;28;20260;-62
2022/01/01 10:04:41;;;;;;;1.00;1.00;;;11.90;99.90;;;;;;5011434;28;20664;-61
2022/01/01 10:07:08;;;;;;;1.00;1.00;;;12.10;99.90;;;;;;5008844;28;20233;-63
2022/01/01 10:09:37;;;;;;;1.20;1.20;;;12.20;99.90;;;;;;5015447;28;20245;-62
2022/01/01 10:12:06;;;;;;;1.00;1.00;;;12.20;99.90;;;;;;5015405;28;20230;-62
2022/01/01 10:14:37;;;;;;;1.03;1.03;;;12.30;99.90;;;;;;5014696;28;20679;-63
2022/01/01 10:17:17;;;;;;;1.00;1.00;;;12.50;99.90;;;;;;5014400;28;20209;-63
2022/01/01 10:22:24;;;;;;;1.10;1.10;;;12.60;99.90;;;;;;5066296;28;20220;-64
2022/01/01 10:27:55;;;;;;;1.10;0.90;;;12.80;99.90;;;;;;5054362;28;20350;-65
2022/01/01 10:30:25;;;;;;;1.13;1.13;;;12.90;99.90;;;;;;5060565;28;20234;-65
2022/01/01 10:33:17;;;;;;;1.10;1.10;;;13.00;99.90;;;;;;5063899;28;20193;-64
2022/01/01 10:35:46;;;;;;;1.00;1.00;;;13.10;99.90;;;;;;5034550;28;20210;-64
2022/01/01 10:38:16;;;;;;;1.20;1.20;;;13.10;99.90;;;;;;5054191;28;20618;-64
2022/01/01 10:40:44;;;;;;;1.00;1.00;;;13.20;99.90;;;;;;5055795;28;20255;-64
2022/01/01 10:43:11;;;;;;;1.10;1.10;;;13.20;99.90;;;;;;5055079;28;20212;-64
2022/01/01 10:45:40;;;;;;;0.93;0.93;;;13.20;99.90;;;;;;5054981;28;20227;-65
2022/01/01 10:48:16;;;;;;;0.90;0.90;;;13.30;99.90;;;;;;5054941;28;20204;-64
2022/01/01 10:50:44;;;;;;;0.87;0.87;;;13.40;99.90;;;;;;5054029;28;20224;-63
2022/01/01 10:53:14;;;;;;;0.90;0.90;;;13.50;99.90;;;;;;5054047;28;20208;-65
2022/01/01 10:55:43;;;;;;;0.80;0.80;;;13.60;99.90;;;;;;5054636;28;20306;-65
2022/01/01 10:58:16;;;;;;;0.90;0.90;;;13.60;99.90;;;;;;5054699;28;20290;-65
2022/01/01 11:00:43;;;;;;;0.73;0.73;;;13.70;99.90;;;;;;5056664;28;20700;-64
2022/01/01 11:03:13;;;;;;;0.90;0.90;;;13.80;99.90;;;;;;5056710;28;20204;-64
2022/01/01 11:05:40;;;;;;;0.73;0.73;;;14.00;99.90;;;;;;5054678;28;20220;-65
2022/01/01 11:08:09;;;;;;;1.07;1.07;;;13.90;99.90;;;;;;5054316;28;20207;-64
2022/01/01 11:10:38;;;;;;;0.70;0.70;;;14.00;99.90;;;;;;5053744;28;20752;-64
2022/01/01 11:13:06;;;;;;;1.00;1.00;;;14.00;99.90;;;;;;5053974;28;20588;-64
2022/01/01 11:15:33;;;;;;;1.10;1.10;;;14.00;99.90;;;;;;5053997;28;20243;-65
2022/01/01 11:18:01;;;;;;;0.90;0.90;;;14.10;99.90;;;;;;5057743;28;20211;-66
2022/01/01 11:20:33;;;;;;;0.93;0.93;;;14.20;99.90;;;;;;5065122;28;20254;-65
2022/01/01 11:23:04;;;;;;;0.87;0.87;;;14.20;99.90;;;;;;5065215;28;20575;-64
2022/01/01 11:25:33;;;;;;;0.80;0.80;;;14.30;99.90;;;;;;5065670;28;20736;-64
2022/01/01 11:28:02;;;;;;;0.90;0.90;;;14.30;99.90;;;;;;5065144;28;20210;-63
2022/01/01 11:30:30;;;;;;;1.00;1.00;;;14.30;99.90;;;;;;5073556;28;20314;-65
2022/01/01 11:33:03;;;;;;;1.00;1.00;;;14.30;99.90;;;;;;5074790;28;20206;-65
2022/01/01 11:35:31;;;;;;;0.70;0.70;;;14.30;99.90;;;;;;5062669;28;20716;-65
2022/01/01 11:38:01;;;;;;;0.90;0.90;;;14.30;99.90;;;;;;5062013;28;20268;-64
2022/01/01 11:40:33;;;;;;;1.00;1.00;;;14.40;99.90;;;;;;5065752;28;20230;-64
2022/01/01 11:43:02;;;;;;;0.70;0.70;;;14.40;99.90;;;;;;5061257;28;20282;-64
2022/01/01 11:45:44;;;;;;;0.90;0.90;;;14.30;99.90;;;;;;5071989;28;20315;-64
2022/01/01 11:48:36;;;;;;;0.87;0.83;;;14.30;99.90;;;;;;5064813;28;20196;-65
2022/01/01 11:51:38;;;;;;;0.80;0.80;;;14.40;99.90;;;;;;5063840;28;20224;-64
2022/01/01 11:54:07;;;;;;;0.80;0.80;;;14.30;99.90;;;;;;5063014;28;20207;-64
2022/01/01 11:57:11;;;;;;;0.90;0.90;;;14.30;99.90;;;;;;5055911;28;20239;-64
2022/01/01 11:59:47;;;;;;;1.00;1.00;;;14.40;99.90;;;;;;4974855;28;20293;-64
2022/01/01 12:02:43;;;;;;;0.90;0.90;;;14.20;99.90;;;;;;4973336;28;20238;-65
2022/01/01 12:05:16;;;;;;;0.90;0.90;;;14.30;99.90;;;;;;4972349;28;20317;-64
2022/01/01 12:07:52;;;;;;;2.40;2.20;;;14.30;99.90;;;;;;4971984;28;20619;-61
2022/01/01 12:10:22;;;;;;;2.53;2.40;;;14.50;99.90;;;;;;4972151;28;20317;-61
2022/01/01 12:12:50;;;;;;;1.47;1.43;;;15.10;99.90;;;;;;4975555;28;20273;-61
2022/01/01 12:15:25;;;;;;;1.40;1.40;;;15.50;99.90;;;;;;4990298;28;20210;-62
2022/01/01 12:17:56;;;;;;;0.97;0.97;;;15.50;99.90;;;;;;4991659;28;20284;-62
2022/01/01 12:20:25;;;;;;;0.80;0.80;;;15.40;99.90;;;;;;5006601;28;20234;-64
2022/01/01 12:22:53;;;;;;;0.80;0.80;;;15.20;99.90;;;;;;5011161;28;20202;-64
2022/01/01 12:25:24;;;;;;;0.90;0.90;;;15.00;99.90;;;;;;4998197;28;20308;-64
2022/01/01 12:27:52;;;;;;;0.90;0.90;;;14.90;99.90;;;;;;4989311;28;20194;-65
2022/01/01 12:30:51;;;;;;;0.90;0.90;;;14.90;99.90;;;;;;5025689;28;20464;-64
2022/01/01 12:33:26;;;;;;;0.90;0.90;;;14.80;99.90;;;;;;5076433;28;20202;-64
2022/01/01 12:35:55;;;;;;;1.00;1.00;;;14.80;99.90;;;;;;5074935;28;20191;-63
2022/01/01 12:38:26;;;;;;;0.83;0.83;;;14.80;99.90;;;;;;5083293;28;20203;-64
2022/01/01 12:41:01;;;;;;;0.90;0.90;;;14.80;99.90;;;;;;5091940;28;20234;-65
2022/01/01 12:43:30;;;;;;;0.73;0.73;;;14.80;99.90;;;;;;5090873;28;20191;-65
2022/01/01 12:46:01;;;;;;;0.90;0.90;;;14.80;99.90;;;;;;5082463;28;20313;-65
2022/01/01 12:48:29;;;;;;;1.00;1.00;;;14.80;99.90;;;;;;5072435;28;20257;-65
2022/01/01 12:51:00;;;;;;;1.00;1.00;;;14.90;99.90;;;;;;5071958;28;20223;-64
2022/01/01 12:53:28;;;;;;;0.87;0.87;;;14.90;99.90;;;;;;5072508;28;20314;-65
2022/01/01 12:56:03;;;;;;;1.00;1.00;;;14.80;99.90;;;;;;5072860;28;20293;-65
2022/01/01 12:58:39;;;;;;;1.07;1.07;;;14.90;99.90;;;;;;5074535;28;20242;-64
2022/01/01 13:01:29;;;;;;;1.17;1.17;;;14.90;99.90;;;;;;5080343;28;20645;-65
2022/01/01 13:03:57;;;;;;;1.00;1.00;;;14.90;99.90;;;;;;5073881;28;20274;-64
2022/01/01 13:06:26;;;;;;;1.03;1.03;;;15.00;99.90;;;;;;5076530;28;20310;-64
2022/01/01 13:08:54;;;;;;;1.00;1.00;;;15.00;99.90;;;;;;5075877;28;20203;-65